createdAt,value
2018-08-16T00:00:02.141Z,16.09
2018-08-16T00:06:07.756Z,16.20
2018-08-16T00:12:12.613Z,15.79
2018-08-16T00:18:17.834Z,15.78
2018-08-16T00:24:22.663Z,15.74
2018-08-16T00:30:27.421Z,15.72
2018-08-16T00:36:33.774Z,15.88
2018-08-16T00:42:38.977Z,15.73
2018-08-16T00:48:43.746Z,15.76
2018-08-16T00:54:48.542Z,15.55
2018-08-16T01:00:53.326Z,15.55
2018-08-16T01:06:58.133Z,15.39
2018-08-16T01:13:03.915Z,15.50
2018-08-16T01:19:08.954Z,15.38
2018-08-16T01:25:14.461Z,15.27
2018-08-16T01:31:19.197Z,15.40
2018-08-16T01:37:24.108Z,15.59
2018-08-16T01:43:29.453Z,15.26
2018-08-16T01:49:35.792Z,15.70
2018-08-16T01:55:41.005Z,15.69
2018-08-16T02:01:46.000Z,15.28
2018-08-16T02:07:51.101Z,15.12
2018-08-16T02:13:56.193Z,15.33
2018-08-16T02:20:01.745Z,15.14
2018-08-16T02:26:06.757Z,14.91
2018-08-16T02:32:12.138Z,14.80
2018-08-16T02:38:16.893Z,14.88
2018-08-16T02:44:21.680Z,14.74
2018-08-16T02:50:26.376Z,14.82
2018-08-16T02:56:31.586Z,14.65
2018-08-16T03:02:37.528Z,14.61
2018-08-16T03:08:42.548Z,14.47
2018-08-16T03:14:47.287Z,14.29
2018-08-16T03:20:52.109Z,14.37
2018-08-16T03:26:56.837Z,14.65
2018-08-16T03:33:02.103Z,14.47
2018-08-16T03:39:09.578Z,14.32
2018-08-16T03:45:14.305Z,14.25
2018-08-16T03:51:19.257Z,14.11
2018-08-16T03:57:23.997Z,14.12
2018-08-16T04:03:29.578Z,14.12
2018-08-16T04:09:35.217Z,14.32
2018-08-16T04:15:39.937Z,14.50
2018-08-16T04:21:45.596Z,14.54
2018-08-16T04:27:51.341Z,14.60
2018-08-16T04:33:56.151Z,14.60
2018-08-16T04:40:01.427Z,14.72
2018-08-16T04:46:06.711Z,14.64
2018-08-16T04:52:11.641Z,14.66
2018-08-16T04:58:16.620Z,14.61
2018-08-16T05:04:21.750Z,14.69
2018-08-16T05:10:26.492Z,14.82
2018-08-16T05:16:31.623Z,15.12
2018-08-16T05:22:36.614Z,15.21
2018-08-16T05:28:41.437Z,15.46
2018-08-16T05:34:46.196Z,15.53
2018-08-16T05:40:50.996Z,15.46
2018-08-16T05:46:55.930Z,15.60
2018-08-16T05:53:01.294Z,16.06
2018-08-16T05:59:06.850Z,15.96
2018-08-16T06:05:13.228Z,16.48
2018-08-16T06:11:18.031Z,16.96
2018-08-16T06:17:23.093Z,17.16
2018-08-16T06:23:29.131Z,17.54
2018-08-16T06:29:34.307Z,17.79
2018-08-16T06:35:39.144Z,18.26
2018-08-16T06:41:44.656Z,18.34
2018-08-16T06:47:50.305Z,18.55
2018-08-16T06:53:55.149Z,19.21
2018-08-16T07:00:00.343Z,19.54
2018-08-16T07:06:05.223Z,20.07
2018-08-16T07:12:10.437Z,20.44
2018-08-16T07:18:15.340Z,20.64
2018-08-16T07:24:20.421Z,21.27
2018-08-16T07:30:25.728Z,21.53
2018-08-16T07:36:30.898Z,21.96
2018-08-16T07:42:36.095Z,22.49
2018-08-16T07:48:40.841Z,22.97
2018-08-16T07:54:45.901Z,23.46
2018-08-16T08:00:50.699Z,23.65
2018-08-16T08:06:55.438Z,24.17
2018-08-16T08:13:01.006Z,24.27
2018-08-16T08:19:06.557Z,24.55
2018-08-16T08:25:11.788Z,24.59
2018-08-16T08:31:16.872Z,25.41
2018-08-16T08:37:38.515Z,25.96
2018-08-16T08:44:00.387Z,26.10
2018-08-16T08:50:07.168Z,26.71
2018-08-16T08:57:33.693Z,26.95
2018-08-16T09:03:38.460Z,27.10
2018-08-16T09:11:10.128Z,26.87
2018-08-16T09:17:15.100Z,26.32
2018-08-16T09:23:20.222Z,25.99
2018-08-16T09:30:41.704Z,26.85
2018-08-16T09:36:46.481Z,27.65
2018-08-16T09:42:51.359Z,27.52
2018-08-16T09:48:56.258Z,27.70
2018-08-16T09:55:01.653Z,28.51
2018-08-16T10:01:13.031Z,28.25
2018-08-16T10:07:18.006Z,28.70
2018-08-16T10:13:22.735Z,28.35
2018-08-16T10:19:28.316Z,28.35
2018-08-16T10:25:34.244Z,29.08
2018-08-16T10:31:38.980Z,29.36
2018-08-16T10:37:43.695Z,29.39
2018-08-16T10:43:48.537Z,30.04
2018-08-16T10:49:53.333Z,30.59
2018-08-16T10:55:59.098Z,30.71
2018-08-16T11:02:04.897Z,31.45
2018-08-16T11:08:10.104Z,32.18
2018-08-16T11:14:14.793Z,34.07
2018-08-16T11:20:19.419Z,34.76
2018-08-16T11:26:24.136Z,35.72
2018-08-16T11:32:29.249Z,35.70
2018-08-16T11:38:34.519Z,35.30
2018-08-16T11:44:39.406Z,34.83
2018-08-16T11:50:44.194Z,35.62
2018-08-16T11:56:48.963Z,37.26
2018-08-16T12:02:53.691Z,37.46
2018-08-16T12:08:58.667Z,37.53
2018-08-16T12:15:04.036Z,37.32
2018-08-16T12:21:09.008Z,36.83
2018-08-16T12:27:13.697Z,39.55
2018-08-16T12:33:18.565Z,38.95
2018-08-16T12:39:23.263Z,40.08
2018-08-16T12:45:28.148Z,39.71
2018-08-16T12:51:33.533Z,39.81
2018-08-16T12:57:38.282Z,40.10
2018-08-16T13:03:43.171Z,40.05
2018-08-16T13:09:48.305Z,40.95
2018-08-16T13:15:53.212Z,41.36
2018-08-16T13:21:57.957Z,40.33
2018-08-16T13:28:04.901Z,42.64
2018-08-16T13:34:10.409Z,41.17
2018-08-16T13:40:15.273Z,41.66
2018-08-16T13:46:20.697Z,39.80
2018-08-16T13:52:25.445Z,40.12
2018-08-16T13:58:31.245Z,39.37
2018-08-16T14:04:36.953Z,39.01
2018-08-16T14:10:41.938Z,38.12
2018-08-16T14:16:46.737Z,37.89
2018-08-16T14:22:51.748Z,39.18
2018-08-16T14:28:56.736Z,38.90
2018-08-16T14:35:04.196Z,40.30
2018-08-16T14:41:09.010Z,39.17
2018-08-16T14:47:13.837Z,39.61
2018-08-16T14:53:18.488Z,38.89
2018-08-16T14:59:23.423Z,38.15
2018-08-16T15:05:29.475Z,38.87
2018-08-16T15:11:34.629Z,39.40
2018-08-16T15:17:39.365Z,38.53
2018-08-16T15:23:44.188Z,38.10
2018-08-16T15:29:48.930Z,38.15
2018-08-16T15:35:53.703Z,36.01
2018-08-16T15:41:58.427Z,35.96
2018-08-16T15:48:05.650Z,38.14
2018-08-16T15:54:10.598Z,40.19
2018-08-16T16:00:15.461Z,39.15
2018-08-16T16:06:20.256Z,40.00
2018-08-16T16:12:24.837Z,38.06
2018-08-16T16:18:29.643Z,40.18
2018-08-16T16:24:34.799Z,40.50
2018-08-16T16:30:39.787Z,40.39
2018-08-16T16:36:44.507Z,39.60
2018-08-16T16:50:27.043Z,39.44
2018-08-16T16:56:32.762Z,38.44
2018-08-16T17:02:37.942Z,37.50
2018-08-16T17:08:42.749Z,37.77
2018-08-16T17:14:47.386Z,37.55
2018-08-16T17:20:52.236Z,37.82
2018-08-16T17:26:57.026Z,38.03
2018-08-16T17:33:02.443Z,37.04
2018-08-16T17:39:08.281Z,35.67
2018-08-16T17:45:13.010Z,35.85
2018-08-16T17:51:17.684Z,36.12
2018-08-16T17:57:22.384Z,36.50
2018-08-16T18:03:27.166Z,37.05
2018-08-16T18:09:32.430Z,36.32
2018-08-16T18:15:37.554Z,35.61
2018-08-16T18:21:42.321Z,33.55
2018-08-16T18:27:47.049Z,31.39
2018-08-16T18:33:51.811Z,30.00
2018-08-16T18:39:56.997Z,28.93
2018-08-16T18:46:02.333Z,28.10
2018-08-16T18:52:07.165Z,27.20
2018-08-16T18:58:11.814Z,26.64
2018-08-16T19:04:16.491Z,26.33
2018-08-16T19:10:21.347Z,26.17
2018-08-16T19:16:26.045Z,25.57
2018-08-16T19:22:31.265Z,25.27
2018-08-16T19:28:36.920Z,24.99
2018-08-16T19:34:41.597Z,24.90
2018-08-16T19:40:46.698Z,24.67
2018-08-16T19:46:51.358Z,24.65
2018-08-16T19:52:56.024Z,24.62
2018-08-16T19:59:01.966Z,24.50
2018-08-16T20:05:07.470Z,24.50
2018-08-16T20:11:12.237Z,24.35
2018-08-16T20:17:16.964Z,24.38
2018-08-16T20:23:21.747Z,24.33
2018-08-16T20:29:26.487Z,24.35
2018-08-16T20:35:31.405Z,24.19
2018-08-16T20:41:36.238Z,23.89
2018-08-16T20:47:40.974Z,23.62
2018-08-16T20:53:45.592Z,23.36
2018-08-16T20:59:50.919Z,23.18
2018-08-16T21:05:55.638Z,22.98
2018-08-16T21:12:00.920Z,22.82
2018-08-16T21:18:05.893Z,22.61
2018-08-16T21:24:10.785Z,22.46
2018-08-16T21:30:15.675Z,22.18
2018-08-16T21:36:20.759Z,22.03
2018-08-16T21:42:25.556Z,21.88
2018-08-16T21:48:31.332Z,21.88
2018-08-16T21:54:36.342Z,21.64
2018-08-16T22:00:51.711Z,21.61
2018-08-16T22:08:30.299Z,21.70
2018-08-16T22:14:35.345Z,21.51
2018-08-16T22:20:40.259Z,21.50
2018-08-16T22:26:45.026Z,21.50
2018-08-16T22:32:50.054Z,21.55
2018-08-16T22:38:54.902Z,21.61
2018-08-16T22:44:59.939Z,21.62
2018-08-16T22:51:04.780Z,21.47
2018-08-16T22:57:09.482Z,21.47
2018-08-16T23:03:14.104Z,21.63
2018-08-16T23:09:18.825Z,21.54
2018-08-16T23:15:23.642Z,21.39
2018-08-16T23:21:28.548Z,21.43
2018-08-16T23:27:33.837Z,21.27
2018-08-16T23:33:38.943Z,21.17
2018-08-16T23:39:43.695Z,21.07
2018-08-16T23:45:48.352Z,20.93
2018-08-16T23:51:53.263Z,20.76
2018-08-16T23:57:58.697Z,20.60
